Time;durP1;ratioP1;P1;durP2;ratioP2;P2;SDS_P1;SDS_P2;PMS_P1;PMS_P2;Temp;Humidity;BMP_temperature;BMP_pressure;BME280_temperature;BME280_humidity;BME280_pressure;Samples;Min_cycle;Max_cycle;Signal;HPM_P1;HPM_P2
2023/05/18 00:02:39;;;;;;;4.35;1.92;;;;;;;;;;20997124;28;20044;-60
2023/05/18 00:12:40;;;;;;;5.22;2.20;;;;;;;;;;20995330;28;20059;-61
2023/05/18 00:22:42;;;;;;;4.72;2.15;;;;;;;;;;20994838;28;20056;-60
2023/05/18 00:32:44;;;;;;;6.50;2.40;;;;;;;;;;20996475;28;20055;-61
2023/05/18 00:42:45;;;;;;;7.15;2.30;;;;;;;;;;21000267;28;20153;-60
2023/05/18 00:52:46;;;;;;;4.78;2.35;;;;;;;;;;21011726;28;20037;-60
2023/05/18 01:02:49;;;;;;;5.60;2.38;;;;;;;;;;21010830;28;20047;-60
2023/05/18 01:12:50;;;;;;;11.82;2.10;;;;;;;;;;21009980;28;20106;-60
2023/05/18 01:23:01;;;;;;;4.13;2.20;;;;;;;;;;21007883;28;20136;-61
2023/05/18 01:33:08;;;;;;;4.15;2.50;;;;;;;;;;21007078;28;20059;-60
2023/05/18 01:43:11;;;;;;;3.42;1.65;;;;;;;;;;21006387;28;20045;-60
2023/05/18 01:53:12;;;;;;;5.57;2.08;;;;;;;;;;21006707;28;20044;-60
2023/05/18 02:03:14;;;;;;;7.05;2.17;;;;;;;;;;21006237;28;20537;-60
2023/05/18 02:13:15;;;;;;;3.72;2.00;;;;;;;;;;21005574;28;20040;-60
2023/05/18 02:23:16;;;;;;;4.88;2.00;;;;;;;;;;21004919;28;20117;-60
2023/05/18 02:33:18;;;;;;;3.45;1.88;;;;;;;;;;21003384;28;20076;-61
2023/05/18 02:43:19;;;;;;;6.85;2.22;;;;;;;;;;21003696;28;20151;-61
2023/05/18 02:53:21;;;;;;;8.45;2.60;;;;;;;;;;21001728;28;20051;-60
2023/05/18 03:03:22;;;;;;;7.43;2.28;;;;;;;;;;20999871;28;20044;-60
2023/05/18 03:13:24;;;;;;;5.90;2.10;;;;;;;;;;21001218;28;20049;-60
2023/05/18 03:23:25;;;;;;;6.30;1.98;;;;;;;;;;20998812;28;20056;-61
2023/05/18 03:33:27;;;;;;;3.28;1.75;;;;;;;;;;20999870;28;20057;-61
2023/05/18 03:43:31;;;;;;;5.88;1.92;;;;;;;;;;20998961;28;20493;-60
2023/05/18 03:53:32;;;;;;;5.90;2.35;;;;;;;;;;20998474;28;20060;-60
2023/05/18 04:03:33;;;;;;;7.10;1.85;;;;;;;;;;20997875;28;20397;-60
2023/05/18 04:13:37;;;;;;;6.90;1.80;;;;;;;;;;20997650;28;20498;-61
2023/05/18 04:23:39;;;;;;;4.68;1.90;;;;;;;;;;20996364;28;20131;-59
2023/05/18 04:33:40;;;;;;;4.70;2.05;;;;;;;;;;20996119;28;20495;-60
2023/05/18 04:43:42;;;;;;;9.90;2.45;;;;;;;;;;20995942;28;20080;-60
2023/05/18 04:53:44;;;;;;;6.28;2.20;;;;;;;;;;20995630;28;20119;-60
2023/05/18 05:03:46;;;;;;;6.25;2.58;;;;;;;;;;20993846;28;20070;-60
2023/05/18 05:13:47;;;;;;;7.20;2.45;;;;;;;;;;20994847;28;20076;-60
2023/05/18 05:23:48;;;;;;;9.93;2.53;;;;;;;;;;20992827;28;20066;-60
2023/05/18 05:33:49;;;;;;;4.82;2.35;;;;;;;;;;21004110;28;20044;-59
2023/05/18 05:43:50;;;;;;;5.85;2.10;;;;;;;;;;21008324;28;20052;-60
2023/05/18 05:53:51;;;;;;;8.40;2.42;;;;;;;;;;21007324;28;20055;-60
2023/05/18 06:03:52;;;;;;;7.90;2.65;;;;;;;;;;21006471;28;20044;-60
2023/05/18 06:13:53;;;;;;;6.88;2.30;;;;;;;;;;21004226;28;20091;-61
2023/05/18 06:23:55;;;;;;;7.63;2.30;;;;;;;;;;21004693;28;20103;-60
2023/05/18 06:33:56;;;;;;;6.50;2.58;;;;;;;;;;21004003;28;20044;-61
2023/05/18 06:43:59;;;;;;;5.22;2.50;;;;;;;;;;21002293;28;20471;-60
2023/05/18 06:54:00;;;;;;;5.38;2.22;;;;;;;;;;21002651;28;20137;-60
2023/05/18 07:04:01;;;;;;;6.75;2.50;;;;;;;;;;21000106;28;20040;-61
2023/05/18 07:14:02;;;;;;;7.40;2.28;;;;;;;;;;21001002;28;20059;-59
2023/05/18 07:24:03;;;;;;;7.80;2.72;;;;;;;;;;20998515;28;20135;-62
2023/05/18 07:34:04;;;;;;;6.82;2.47;;;;;;;;;;20999420;28;20383;-60
2023/05/18 07:44:05;;;;;;;5.45;2.28;;;;;;;;;;20998130;28;20513;-61
2023/05/18 07:54:07;;;;;;;7.80;2.55;;;;;;;;;;20995516;28;20113;-61
2023/05/18 08:04:08;;;;;;;6.40;2.60;;;;;;;;;;20997496;28;20120;-61
2023/05/18 08:14:10;;;;;;;5.93;2.47;;;;;;;;;;20997320;28;20138;-61
2023/05/18 08:24:11;;;;;;;6.20;2.70;;;;;;;;;;20995894;28;20055;-61
2023/05/18 08:34:12;;;;;;;6.75;2.67;;;;;;;;;;20996032;28;20140;-61
2023/05/18 08:44:20;;;;;;;6.20;2.75;;;;;;;;;;20995770;28;20508;-61
2023/05/18 08:54:22;;;;;;;4.93;2.30;;;;;;;;;;20995703;28;20409;-61
2023/05/18 09:04:23;;;;;;;7.95;3.13;;;;;;;;;;20998228;28;20066;-62
2023/05/18 09:14:25;;;;;;;6.43;2.80;;;;;;;;;;21010009;28;20041;-61
2023/05/18 09:24:26;;;;;;;6.32;2.70;;;;;;;;;;21008335;28;20059;-68
2023/05/18 09:34:38;;;;;;;17.15;4.10;;;;;;;;;;21007931;28;20525;-70
2023/05/18 09:44:40;;;;;;;6.35;2.58;;;;;;;;;;21009785;28;20106;-72
2023/05/18 09:54:43;;;;;;;5.85;2.75;;;;;;;;;;21005366;28;20055;-72
2023/05/18 10:04:44;;;;;;;8.45;2.78;;;;;;;;;;21006491;28;20517;-73
2023/05/18 10:14:46;;;;;;;5.40;2.70;;;;;;;;;;21004547;28;20089;-56
2023/05/18 10:24:51;;;;;;;6.13;2.60;;;;;;;;;;21003034;28;20526;-57
2023/05/18 10:34:53;;;;;;;5.13;2.28;;;;;;;;;;21002807;28;20508;-59
2023/05/18 10:44:56;;;;;;;8.77;3.10;;;;;;;;;;21001180;28;20448;-61
2023/05/18 10:55:00;;;;;;;5.88;2.30;;;;;;;;;;21000125;28;20041;-58
2023/05/18 11:05:04;;;;;;;5.85;2.80;;;;;;;;;;21000769;28;20066;-60
2023/05/18 11:15:05;;;;;;;7.18;3.00;;;;;;;;;;20999344;28;20040;-60
2023/05/18 11:25:30;;;;;;;6.45;2.75;;;;;;;;;;20997344;28;20048;-70
2023/05/18 11:35:33;;;;;;;5.38;2.60;;;;;;;;;;20997011;28;20087;-68
2023/05/18 11:45:34;;;;;;;6.03;2.95;;;;;;;;;;20997020;28;20493;-62
2023/05/18 11:55:40;;;;;;;4.68;3.05;;;;;;;;;;20996602;28;20048;-61
2023/05/18 12:05:48;;;;;;;5.40;2.65;;;;;;;;;;20995985;28;20041;-62
2023/05/18 12:15:50;;;;;;;4.50;2.80;;;;;;;;;;20996306;28;20048;-63
2023/05/18 12:25:51;;;;;;;8.88;2.70;;;;;;;;;;20996921;28;20061;-61
2023/05/18 12:35:54;;;;;;;6.00;2.83;;;;;;;;;;20995762;28;20041;-61
2023/05/18 12:45:58;;;;;;;5.50;2.72;;;;;;;;;;21011597;28;20052;-59
2023/05/18 12:56:00;;;;;;;5.93;2.92;;;;;;;;;;21009548;28;20060;-61
2023/05/18 13:06:02;;;;;;;4.80;2.42;;;;;;;;;;21008061;28;20040;-61
2023/05/18 13:16:03;;;;;;;6.72;2.70;;;;;;;;;;21008570;28;20385;-60
2023/05/18 13:26:05;;;;;;;5.10;3.10;;;;;;;;;;21006467;28;20055;-61
2023/05/18 13:36:06;;;;;;;6.30;3.30;;;;;;;;;;21006696;28;20052;-61
2023/05/18 13:46:07;;;;;;;6.53;3.17;;;;;;;;;;21004724;28;20053;-61
2023/05/18 13:56:08;;;;;;;4.55;2.75;;;;;;;;;;21004886;28;20174;-60
2023/05/18 14:06:09;;;;;;;4.93;2.90;;;;;;;;;;21003676;28;20044;-61
2023/05/18 14:16:11;;;;;;;3.97;2.67;;;;;;;;;;21003264;28;20501;-62
2023/05/18 14:26:12;;;;;;;5.72;2.63;;;;;;;;;;21001867;28;20056;-60
2023/05/18 14:36:13;;;;;;;7.95;3.45;;;;;;;;;;21003506;28;20041;-61
2023/05/18 14:46:14;;;;;;;6.00;2.85;;;;;;;;;;21003226;28;20581;-60
2023/05/18 14:56:15;;;;;;;4.72;3.25;;;;;;;;;;20999655;28;20041;-61
2023/05/18 15:06:16;;;;;;;7.00;3.13;;;;;;;;;;20998470;28;20036;-61
2023/05/18 15:16:18;;;;;;;6.05;3.42;;;;;;;;;;20998770;28;20052;-60
2023/05/18 15:26:20;;;;;;;5.75;3.30;;;;;;;;;;20998680;28;20174;-61
2023/05/18 15:36:21;;;;;;;7.10;3.42;;;;;;;;;;20998094;28;20040;-60
2023/05/18 15:46:22;;;;;;;4.53;2.65;;;;;;;;;;20996839;28;20080;-62
2023/05/18 15:56:23;;;;;;;6.82;2.72;;;;;;;;;;20996434;28;20090;-61
2023/05/18 16:06:24;;;;;;;5.30;2.53;;;;;;;;;;20994547;28;20493;-60
2023/05/18 16:16:26;;;;;;;5.47;3.20;;;;;;;;;;20994140;28;20501;-61
2023/05/18 16:26:27;;;;;;;4.20;2.60;;;;;;;;;;20993716;28;20052;-59
2023/05/18 16:36:30;;;;;;;5.82;3.25;;;;;;;;;;20996400;28;20048;-61
2023/05/18 16:46:31;;;;;;;6.57;3.20;;;;;;;;;;20995761;28;20401;-60
2023/05/18 16:56:34;;;;;;;6.70;3.42;;;;;;;;;;20994227;28;20040;-61
2023/05/18 17:06:35;;;;;;;5.00;3.25;;;;;;;;;;20993459;28;20051;-60
2023/05/18 17:16:39;;;;;;;5.97;3.00;;;;;;;;;;20992945;28;20040;-61
2023/05/18 17:26:40;;;;;;;4.82;2.83;;;;;;;;;;21000447;28;20091;-61
2023/05/18 17:36:41;;;;;;;5.18;3.28;;;;;;;;;;21008956;28;20439;-61
2023/05/18 17:46:44;;;;;;;6.25;3.05;;;;;;;;;;21006751;28;20068;-60
2023/05/18 17:56:45;;;;;;;8.30;3.33;;;;;;;;;;21007129;28;20071;-61
2023/05/18 18:06:46;;;;;;;8.70;3.35;;;;;;;;;;21006659;28;20040;-60
2023/05/18 18:16:47;;;;;;;6.25;2.90;;;;;;;;;;21005674;28;20394;-62
2023/05/18 18:26:51;;;;;;;5.78;2.92;;;;;;;;;;21003994;28;20068;-62
2023/05/18 18:36:52;;;;;;;8.18;3.67;;;;;;;;;;21004141;28;20067;-62
2023/05/18 18:46:53;;;;;;;9.25;3.53;;;;;;;;;;21002196;28;20132;-60
2023/05/18 18:56:54;;;;;;;7.10;3.20;;;;;;;;;;21001157;28;20049;-61
2023/05/18 19:07:00;;;;;;;5.05;2.40;;;;;;;;;;21001776;28;20055;-61
2023/05/18 19:17:01;;;;;;;7.18;2.90;;;;;;;;;;21000677;28;20079;-60
2023/05/18 19:27:02;;;;;;;6.03;2.85;;;;;;;;;;20999742;28;20136;-61
2023/05/18 19:37:03;;;;;;;5.75;2.40;;;;;;;;;;20999020;28;20040;-61
2023/05/18 19:47:05;;;;;;;10.32;2.47;;;;;;;;;;20997786;28;20048;-62
2023/05/18 19:57:06;;;;;;;5.40;2.38;;;;;;;;;;20997454;28;20476;-61
2023/05/18 20:07:07;;;;;;;7.57;2.33;;;;;;;;;;20996778;28;20105;-62
2023/05/18 20:17:08;;;;;;;3.92;2.22;;;;;;;;;;20996335;28;20072;-60
2023/05/18 20:27:10;;;;;;;5.70;2.20;;;;;;;;;;20994867;28;20521;-61
2023/05/18 20:37:12;;;;;;;4.30;2.38;;;;;;;;;;20994906;28;20044;-61
2023/05/18 20:47:19;;;;;;;6.88;2.63;;;;;;;;;;20995450;28;20056;-61
2023/05/18 20:57:20;;;;;;;6.40;2.13;;;;;;;;;;20994777;28;20116;-61
2023/05/18 21:07:21;;;;;;;8.57;2.40;;;;;;;;;;21010104;28;20131;-61
2023/05/18 21:17:22;;;;;;;6.70;2.22;;;;;;;;;;21008978;28;20040;-61
2023/05/18 21:27:23;;;;;;;6.70;2.45;;;;;;;;;;21007561;28;20044;-62
2023/05/18 21:37:24;;;;;;;5.78;2.25;;;;;;;;;;21009134;28;20071;-62
2023/05/18 21:47:26;;;;;;;5.03;1.92;;;;;;;;;;21008088;28;20123;-60
2023/05/18 21:57:27;;;;;;;4.88;2.30;;;;;;;;;;21006527;28;20043;-61
2023/05/18 22:07:28;;;;;;;3.83;1.70;;;;;;;;;;21006356;28;20049;-61
2023/05/18 22:17:29;;;;;;;5.55;2.40;;;;;;;;;;21004330;28;20040;-61
2023/05/18 22:27:32;;;;;;;4.45;1.65;;;;;;;;;;21004237;28;20061;-61
2023/05/18 22:37:33;;;;;;;3.58;1.73;;;;;;;;;;21004667;28;20094;-61
2023/05/18 22:47:34;;;;;;;4.93;1.90;;;;;;;;;;21004194;28;20124;-61
2023/05/18 22:57:35;;;;;;;4.20;1.48;;;;;;;;;;21002910;28;20090;-61
2023/05/18 23:07:37;;;;;;;6.18;1.77;;;;;;;;;;21002242;28;20072;-62
2023/05/18 23:17:38;;;;;;;4.38;1.55;;;;;;;;;;21001653;28;20470;-61
2023/05/18 23:27:39;;;;;;;3.15;1.80;;;;;;;;;;20998258;28;20060;-62
2023/05/18 23:37:41;;;;;;;4.50;1.73;;;;;;;;;;20999945;28;20055;-61
2023/05/18 23:47:42;;;;;;;4.85;1.80;;;;;;;;;;20999286;28;20048;-61
2023/05/18 23:57:43;;;;;;;6.13;2.05;;;;;;;;;;20998582;28;20091;-61
